BBC Delaware — V2CN9 — position and weather

sailwx.info

Track history (hours):
 
Tides and Currents Weather Stations Pressure Air Temp Water Temp Dewpoint Dewpoint Depression Visibility Wind Speed Wind Dir Waves Ship Positions

BBC Delaware

Last reported at 2016-Sep-25 17:29 UTC. Time now 2016-Sep-25 19:08 UTC.
Position N 51°17' E 004°23'.

Length 138 m; draft 5.6 m.

Type: Cargo ship. MMSI: 305057000.

Date/timePositionNaut miles runAvg speedWind from/ knotsBaromVisibWave heightAir tempDewpointWater temp
2016-Sep-25 17:29N 51°17' E 004°23'0 0.0
2016-Sep-25 16:32N 51°17' E 004°23'0 0.0
2016-Sep-25 15:29N 51°17' E 004°23'0 0.0
2016-Sep-25 14:32N 51°17' E 004°23'0 0.0
2016-Sep-25 12:32N 51°17' E 004°23'0 0.0
2016-Sep-25 11:26N 51°17' E 004°23'0 0.0
2016-Sep-25 10:26N 51°17' E 004°23'0 0.0
2016-Sep-25 09:32N 51°17' E 004°23'0 0.0
2016-Sep-25 07:32N 51°17' E 004°23'0 0.0
2016-Sep-25 04:29N 51°17' E 004°23'0 0.0
2016-Sep-25 00:32N 51°17' E 004°23'0 0.0
2016-Sep-24 22:32N 51°17' E 004°23'0 0.0
2016-Sep-24 21:29N 51°17' E 004°23'0 0.0
2016-Sep-24 19:29N 51°17' E 004°23'2 2.1
2016-Sep-24 18:33N 51°18' E 004°20'4 3.5
2016-Sep-24 17:33N 51°21' E 004°17'0 0.1
2016-Sep-24 16:33N 51°21' E 004°17'10 5.2
2016-Sep-24 14:33N 51°25' E 004°02'18 9.2
2016-Sep-24 12:33N 51°25' E 003°32'17 8.3
2016-Sep-24 10:33N 51°24' E 003°06'1111.0
2016-Sep-24 09:33N 51°22' E 002°49'9 1.5
2016-Sep-24 03:33N 51°25' E 002°35'0 0.1
2016-Sep-24 02:33N 51°25' E 002°35'0 0.1
2016-Sep-24 01:33N 51°25' E 002°35'0 0.0
2016-Sep-24 00:33N 51°25' E 002°35'0 0.0
2016-Sep-23 19:33N 51°25' E 002°35'2311.3
2016-Sep-23 17:33N 51°12' E 002°05'1615.8
2016-Sep-23 16:33N 51°03' E 001°45'6 6.3
2016-Sep-23 15:32N 50°58' E 001°52'0 0.0
2016-Sep-23 13:26N 50°58' E 001°52'0 0.0
2016-Sep-23 09:29N 50°58' E 001°52'0 0.0
2016-Sep-23 06:23N 50°58' E 001°52'0 0.0
2016-Sep-23 04:20N 50°58' E 001°52'0 0.0
2016-Sep-23 03:20N 50°58' E 001°52'0 0.0
2016-Sep-23 02:26N 50°58' E 001°52'0 0.0
2016-Sep-23 01:32N 50°58' E 001°52'0 0.0
2016-Sep-23 00:32N 50°58' E 001°52'0 0.0
2016-Sep-22 23:32N 50°58' E 001°52'0 0.0
2016-Sep-22 20:33N 50°58' E 001°52'0 0.0
2016-Sep-22 12:27N 50°58' E 001°52'0 0.0
2016-Sep-22 04:33N 50°58' E 001°52'0 0.0
2016-Sep-22 03:33N 50°58' E 001°52'0 0.0
2016-Sep-22 00:33N 50°58' E 001°52'0 0.0
2016-Sep-21 23:30N 50°58' E 001°52'0 0.0
2016-Sep-21 22:33N 50°58' E 001°52'0 0.0
2016-Sep-21 19:33N 50°58' E 001°52'7 2.3
2016-Sep-21 16:33N 50°58' E 001°41'10214.4
2016-Sep-21 09:29N 50°10' W 000°40'1415.5
2016-Sep-21 08:34N 50°06' W 001°02'392 9.3
2016-Sep-19 14:29N 43°35' W 001°35'  
Track history (hours):
 
Tides and Currents Weather Stations Pressure Air Temp Water Temp Dewpoint Dewpoint Depression Visibility Wind Speed Wind Dir Waves Ship Positions

BBC Delaware

Last reported at 2016-Sep-25 17:29 UTC. Time now 2016-Sep-25 19:08 UTC.
Position N 51°17' E 004°23'.

Length 138 m; draft 5.6 m.

Type: Cargo ship. MMSI: 305057000.

Date/timePositionNaut miles runAvg speedWind from/ knotsBaromVisibWave heightAir tempDewpointWater temp
2016-Sep-25 17:29N 51°17' E 004°23'0 0.0
2016-Sep-25 16:32N 51°17' E 004°23'0 0.0
2016-Sep-25 15:29N 51°17' E 004°23'0 0.0
2016-Sep-25 14:32N 51°17' E 004°23'0 0.0
2016-Sep-25 12:32N 51°17' E 004°23'0 0.0
2016-Sep-25 11:26N 51°17' E 004°23'0 0.0
2016-Sep-25 10:26N 51°17' E 004°23'0 0.0
2016-Sep-25 09:32N 51°17' E 004°23'0 0.0
2016-Sep-25 07:32N 51°17' E 004°23'0 0.0
2016-Sep-25 04:29N 51°17' E 004°23'0 0.0
2016-Sep-25 00:32N 51°17' E 004°23'0 0.0
2016-Sep-24 22:32N 51°17' E 004°23'0 0.0
2016-Sep-24 21:29N 51°17' E 004°23'0 0.0
2016-Sep-24 19:29N 51°17' E 004°23'2 2.1
2016-Sep-24 18:33N 51°18' E 004°20'4 3.5
2016-Sep-24 17:33N 51°21' E 004°17'0 0.1
2016-Sep-24 16:33N 51°21' E 004°17'10 5.2
2016-Sep-24 14:33N 51°25' E 004°02'18 9.2
2016-Sep-24 12:33N 51°25' E 003°32'17 8.3
2016-Sep-24 10:33N 51°24' E 003°06'1111.0
2016-Sep-24 09:33N 51°22' E 002°49'9 1.5
2016-Sep-24 03:33N 51°25' E 002°35'0 0.1
2016-Sep-24 02:33N 51°25' E 002°35'0 0.1
2016-Sep-24 01:33N 51°25' E 002°35'0 0.0
2016-Sep-24 00:33N 51°25' E 002°35'0 0.0
2016-Sep-23 19:33N 51°25' E 002°35'2311.3
2016-Sep-23 17:33N 51°12' E 002°05'1615.8
2016-Sep-23 16:33N 51°03' E 001°45'6 6.3
2016-Sep-23 15:32N 50°58' E 001°52'0 0.0
2016-Sep-23 13:26N 50°58' E 001°52'0 0.0
2016-Sep-23 09:29N 50°58' E 001°52'0 0.0
2016-Sep-23 06:23N 50°58' E 001°52'0 0.0
2016-Sep-23 04:20N 50°58' E 001°52'0 0.0
2016-Sep-23 03:20N 50°58' E 001°52'0 0.0
2016-Sep-23 02:26N 50°58' E 001°52'0 0.0
2016-Sep-23 01:32N 50°58' E 001°52'0 0.0
2016-Sep-23 00:32N 50°58' E 001°52'0 0.0
2016-Sep-22 23:32N 50°58' E 001°52'0 0.0
2016-Sep-22 20:33N 50°58' E 001°52'0 0.0
2016-Sep-22 12:27N 50°58' E 001°52'0 0.0
2016-Sep-22 04:33N 50°58' E 001°52'0 0.0
2016-Sep-22 03:33N 50°58' E 001°52'0 0.0
2016-Sep-22 00:33N 50°58' E 001°52'0 0.0
2016-Sep-21 23:30N 50°58' E 001°52'0 0.0
2016-Sep-21 22:33N 50°58' E 001°52'0 0.0
2016-Sep-21 19:33N 50°58' E 001°52'7 2.3
2016-Sep-21 16:33N 50°58' E 001°41'10214.4
2016-Sep-21 09:29N 50°10' W 000°40'1415.5
2016-Sep-21 08:34N 50°06' W 001°02'392 9.3
2016-Sep-19 14:29N 43°35' W 001°35'  

Dump ship's entire track history